Time;durP1;ratioP1;P1;durP2;ratioP2;P2;SDS_P1;SDS_P2;PMS_P1;PMS_P2;Temp;Humidity;BMP_temperature;BMP_pressure;BME280_temperature;BME280_humidity;BME280_pressure;Samples;Min_cycle;Max_cycle;Signal;HPM_P1;HPM_P2
2022/12/12 00:00:10;;;;;;;5.27;3.03;;;1.30;98.00;;;;;;5014452;28;20458;-65
2022/12/12 00:02:38;;;;;;;8.60;3.80;;;1.10;98.00;;;;;;5014177;28;20462;-65
2022/12/12 00:05:07;;;;;;;5.60;3.10;;;1.00;98.00;;;;;;5014280;28;20882;-65
2022/12/12 00:07:34;;;;;;;3.77;2.80;;;1.00;98.00;;;;;;5013988;28;21136;-65
2022/12/12 00:10:01;;;;;;;4.03;2.27;;;1.00;98.00;;;;;;4996706;28;20463;-65
2022/12/12 00:12:30;;;;;;;2.87;2.67;;;1.00;98.00;;;;;;5014210;28;20915;-65
2022/12/12 00:14:57;;;;;;;5.97;2.57;;;0.90;98.00;;;;;;5014199;28;20490;-65
2022/12/12 00:17:24;;;;;;;4.07;3.00;;;0.90;98.00;;;;;;5014273;28;20466;-65
2022/12/12 00:19:51;;;;;;;4.47;2.83;;;0.90;98.00;;;;;;5013676;28;20463;-65
2022/12/12 00:22:24;;;;;;;4.23;3.03;;;0.80;98.00;;;;;;5013533;28;20455;-66
2022/12/12 00:24:51;;;;;;;4.40;2.30;;;0.80;98.00;;;;;;5013638;28;20463;-65
2022/12/12 00:27:18;;;;;;;4.63;3.20;;;0.90;98.00;;;;;;5014129;28;20859;-65
2022/12/12 00:29:51;;;;;;;6.40;2.87;;;0.90;98.00;;;;;;5013898;28;20461;-65
2022/12/12 00:32:19;;;;;;;3.47;2.53;;;0.80;98.00;;;;;;5013646;28;20513;-65
2022/12/12 00:34:46;;;;;;;3.50;1.90;;;0.80;98.00;;;;;;5013159;28;20845;-65
2022/12/12 00:37:16;;;;;;;9.23;2.63;;;0.80;98.00;;;;;;5013349;28;20467;-65
2022/12/12 00:39:43;;;;;;;3.10;2.13;;;0.80;98.00;;;;;;5013448;28;20831;-65
2022/12/12 00:42:14;;;;;;;4.13;2.87;;;0.80;98.00;;;;;;4995992;28;20552;-65
2022/12/12 00:44:41;;;;;;;5.63;3.47;;;0.80;98.00;;;;;;5013927;28;20462;-64
2022/12/12 00:47:09;;;;;;;5.97;3.43;;;0.70;98.00;;;;;;5013455;28;20858;-64
2022/12/12 00:49:36;;;;;;;4.13;2.87;;;0.70;98.00;;;;;;5013667;28;20465;-64
2022/12/12 00:52:04;;;;;;;4.23;2.43;;;0.70;98.00;;;;;;5013486;28;20825;-64
2022/12/12 00:54:31;;;;;;;4.37;2.90;;;0.60;98.00;;;;;;5013309;28;20688;-64
2022/12/12 00:56:58;;;;;;;3.67;2.10;;;0.60;98.00;;;;;;5013250;28;20485;-64
2022/12/12 00:59:25;;;;;;;3.80;2.40;;;0.70;98.00;;;;;;5013346;28;20995;-64
2022/12/12 01:01:52;;;;;;;5.00;3.03;;;0.60;98.00;;;;;;5013071;28;20462;-64
2022/12/12 01:04:21;;;;;;;3.80;2.67;;;0.60;98.00;;;;;;5013102;28;20514;-64
2022/12/12 01:06:48;;;;;;;3.57;2.70;;;0.60;98.00;;;;;;5013170;28;20467;-64
2022/12/12 01:09:15;;;;;;;4.93;2.80;;;0.60;98.00;;;;;;5013098;28;20467;-64
2022/12/12 01:11:43;;;;;;;4.33;2.30;;;0.60;98.00;;;;;;5013324;28;20459;-64
2022/12/12 01:14:10;;;;;;;4.13;2.90;;;0.70;98.00;;;;;;5012918;28;20486;-64
2022/12/12 01:16:40;;;;;;;3.90;2.27;;;0.70;98.00;;;;;;5013125;28;20455;-64
2022/12/12 01:19:07;;;;;;;3.70;2.33;;;0.60;98.00;;;;;;5013195;28;20469;-64
2022/12/12 01:21:37;;;;;;;1.93;1.73;;;0.60;98.00;;;;;;5013111;28;20953;-64
2022/12/12 01:24:04;;;;;;;2.50;2.00;;;0.50;98.00;;;;;;5013170;28;20996;-64
2022/12/12 01:26:31;;;;;;;3.73;2.47;;;0.50;98.00;;;;;;5013133;28;20845;-64
2022/12/12 01:28:58;;;;;;;2.30;2.10;;;0.50;98.00;;;;;;5013033;28;20463;-64
2022/12/12 01:31:25;;;;;;;3.30;2.10;;;0.40;98.00;;;;;;5012199;28;20455;-64
2022/12/12 01:33:52;;;;;;;2.80;1.90;;;0.30;98.00;;;;;;5012709;28;20459;-64
2022/12/12 01:36:22;;;;;;;1.90;1.80;;;0.30;98.00;;;;;;5012597;28;20485;-64
2022/12/12 01:38:55;;;;;;;2.07;1.80;;;0.40;98.00;;;;;;5012685;28;20473;-64
2022/12/12 01:41:23;;;;;;;3.87;1.97;;;0.40;98.00;;;;;;5012492;28;20876;-64
2022/12/12 01:43:50;;;;;;;2.87;2.30;;;0.40;98.00;;;;;;5012634;28;20463;-64
2022/12/12 01:46:35;;;;;;;6.33;2.23;;;0.30;98.00;;;;;;5012517;28;20461;-64
2022/12/12 01:49:11;;;;;;;3.60;2.07;;;0.20;98.00;;;;;;5012399;28;20505;-64
2022/12/12 01:51:40;;;;;;;1.97;1.80;;;0.20;98.00;;;;;;5012462;28;20868;-64
2022/12/12 01:54:13;;;;;;;1.93;1.53;;;0.10;98.00;;;;;;5012241;28;20509;-64
2022/12/12 01:56:42;;;;;;;3.90;2.47;;;0.10;98.00;;;;;;5012383;28;20476;-64
2022/12/12 01:59:12;;;;;;;4.50;2.87;;;0.00;98.00;;;;;;4995131;28;20521;-64
2022/12/12 02:01:40;;;;;;;5.43;2.10;;;0.00;98.00;;;;;;5012375;28;20589;-64
2022/12/12 02:04:10;;;;;;;3.80;2.47;;;0.00;98.00;;;;;;5012135;28;20913;-64
2022/12/12 02:06:38;;;;;;;3.53;2.60;;;0.10;98.00;;;;;;5012091;28;20478;-64
2022/12/12 02:09:10;;;;;;;3.73;2.33;;;0.10;98.00;;;;;;5012260;28;20461;-64
2022/12/12 02:11:43;;;;;;;9.93;3.30;;;0.00;98.00;;;;;;5012347;28;20458;-64
2022/12/12 02:14:11;;;;;;;6.63;3.37;;;-0.10;98.00;;;;;;5012236;28;20521;-64
2022/12/12 02:17:21;;;;;;;7.50;2.37;;;-0.20;98.00;;;;;;4994879;28;20462;-64
2022/12/12 02:20:17;;;;;;;3.90;3.57;;;-0.30;98.00;;;;;;4931911;29;20488;-64
2022/12/12 02:23:08;;;;;;;8.30;3.03;;;-0.30;98.00;;;;;;4932325;29;20466;-64
2022/12/12 02:26:04;;;;;;;4.60;2.17;;;0.00;98.00;;;;;;5002447;28;20883;-64
2022/12/12 02:28:57;;;;;;;7.17;2.70;;;0.10;98.00;;;;;;4990225;28;20572;-64
2022/12/12 02:31:31;;;;;;;3.73;2.67;;;0.10;98.00;;;;;;5008918;28;20528;-64
2022/12/12 02:34:04;;;;;;;2.63;2.30;;;0.00;98.00;;;;;;5012048;28;20467;-64
2022/12/12 02:36:38;;;;;;;3.10;2.57;;;-0.10;98.00;;;;;;5011863;28;20493;-64
2022/12/12 02:39:10;;;;;;;3.33;1.90;;;-0.20;98.00;;;;;;5011979;28;20465;-64
2022/12/12 02:41:42;;;;;;;3.93;2.50;;;-0.30;98.00;;;;;;5011804;28;20462;-64
2022/12/12 02:44:18;;;;;;;3.07;2.43;;;-0.40;98.00;;;;;;5015332;28;21018;-64
2022/12/12 02:46:52;;;;;;;4.07;3.33;;;-0.50;98.00;;;;;;5015428;28;20492;-64
2022/12/12 02:49:26;;;;;;;2.07;1.87;;;-0.60;98.00;;;;;;5015820;28;20535;-64
2022/12/12 02:51:55;;;;;;;3.10;2.30;;;-0.70;98.00;;;;;;5015799;28;20885;-64
2022/12/12 02:54:23;;;;;;;5.87;3.43;;;-0.80;98.00;;;;;;5015522;28;20596;-64
2022/12/12 02:56:53;;;;;;;5.67;2.30;;;-0.80;98.00;;;;;;4998227;28;20462;-64
2022/12/12 02:59:31;;;;;;;3.97;2.63;;;-0.80;98.00;;;;;;5015654;28;21165;-64
2022/12/12 03:02:31;;;;;;;2.40;2.03;;;-0.90;98.00;;;;;;5015478;28;20468;-64
2022/12/12 03:08:21;;;;;;;1.90;1.87;;;-1.10;98.00;;;;;;5015483;28;20602;-64
2022/12/12 03:10:55;;;;;;;5.10;3.40;;;-0.80;98.00;;;;;;5015662;28;20473;-64
2022/12/12 03:13:31;;;;;;;3.37;2.53;;;-0.70;98.00;;;;;;5015552;28;20859;-64
2022/12/12 03:16:09;;;;;;;5.97;3.50;;;-0.90;98.00;;;;;;5015687;28;20490;-64
2022/12/12 03:18:43;;;;;;;3.47;2.17;;;-1.00;98.00;;;;;;5015348;28;20526;-64
2022/12/12 03:21:16;;;;;;;3.77;2.50;;;-0.90;98.00;;;;;;5015284;28;20543;-64
2022/12/12 03:23:47;;;;;;;2.33;1.90;;;-0.80;98.00;;;;;;5015080;28;20544;-64
2022/12/12 03:26:21;;;;;;;4.37;2.30;;;-0.80;98.00;;;;;;5015274;28;20512;-64
2022/12/12 03:28:52;;;;;;;5.33;2.23;;;-0.90;98.00;;;;;;5015115;28;20824;-64
2022/12/12 03:31:27;;;;;;;4.77;3.00;;;-1.00;98.00;;;;;;5015224;28;20464;-64
2022/12/12 03:34:00;;;;;;;2.20;1.80;;;-1.20;98.00;;;;;;5014911;28;20461;-64
2022/12/12 03:36:32;;;;;;;3.70;2.40;;;-1.30;98.00;;;;;;5015118;28;21014;-64
2022/12/12 03:39:09;;;;;;;3.17;2.67;;;-1.40;98.00;;;;;;5013659;28;20466;-64
2022/12/12 03:41:41;;;;;;;2.53;2.00;;;-1.60;98.00;;;;;;5015078;28;20826;-64
2022/12/12 03:44:14;;;;;;;2.40;1.50;;;-1.70;98.00;;;;;;5014913;28;20465;-64
2022/12/12 03:46:46;;;;;;;2.30;1.90;;;-1.80;98.00;;;;;;5014913;28;20464;-64
2022/12/12 03:49:18;;;;;;;3.13;2.37;;;-1.70;98.00;;;;;;5014573;28;20474;-64
2022/12/12 03:51:48;;;;;;;1.70;1.60;;;-1.60;98.00;;;;;;5014707;28;20470;-64
2022/12/12 03:54:21;;;;;;;2.17;2.03;;;-1.50;98.00;;;;;;5013980;28;20981;-64
2022/12/12 03:56:54;;;;;;;2.30;1.70;;;-1.40;98.00;;;;;;5014227;28;20532;-64
2022/12/12 03:59:26;;;;;;;4.03;2.90;;;-1.40;98.00;;;;;;5013978;28;20519;-64
2022/12/12 04:01:58;;;;;;;3.53;2.47;;;-1.40;98.00;;;;;;5014262;28;20516;-64
2022/12/12 04:04:32;;;;;;;2.90;2.17;;;-1.40;98.00;;;;;;5014474;28;21030;-64
2022/12/12 04:07:03;;;;;;;6.23;3.10;;;-1.50;98.00;;;;;;5013165;28;20476;-64
2022/12/12 04:15:24;;;;;;;5.20;2.60;;;-1.40;98.00;;;;;;5014306;28;20492;-64
2022/12/12 04:18:01;;;;;;;2.47;1.97;;;-1.50;98.00;;;;;;5014254;28;20201;-64
2022/12/12 04:23:32;;;;;;;1.60;1.60;;;-1.50;98.00;;;;;;5014021;28;20476;-64
2022/12/12 04:29:38;;;;;;;3.43;2.30;;;-1.30;98.00;;;;;;4978016;28;20455;-64
2022/12/12 04:32:15;;;;;;;2.72;2.58;;;-1.20;98.00;;;;;;4953075;28;20464;-64
2022/12/12 04:34:48;;;;;;;5.33;3.37;;;-1.20;98.00;;;;;;5003599;28;20685;-64
2022/12/12 04:37:19;;;;;;;3.43;2.43;;;-1.20;98.00;;;;;;5014033;28;20783;-64
2022/12/12 04:39:50;;;;;;;4.10;2.80;;;-1.10;98.00;;;;;;5013943;28;20465;-64
2022/12/12 04:42:21;;;;;;;3.72;2.28;;;-1.10;98.00;;;;;;5013863;28;20457;-64
2022/12/12 04:44:54;;;;;;;4.70;2.80;;;-0.80;98.00;;;;;;5013619;28;20210;-64
2022/12/12 04:47:23;;;;;;;4.40;3.05;;;-0.70;98.00;;;;;;5013784;28;20465;-64
2022/12/12 04:49:54;;;;;;;1.67;1.57;;;-0.80;98.00;;;;;;5013648;28;20203;-64
2022/12/12 04:52:24;;;;;;;3.10;2.37;;;-0.80;98.00;;;;;;5013661;28;20514;-64
2022/12/12 04:55:00;;;;;;;2.07;1.90;;;-0.90;98.00;;;;;;5013614;28;20469;-64
2022/12/12 04:57:33;;;;;;;3.00;1.80;;;-0.90;98.00;;;;;;5013504;28;20464;-64
2022/12/12 05:00:01;;;;;;;3.67;2.20;;;-0.90;98.00;;;;;;5012435;28;20472;-64
2022/12/12 05:02:34;;;;;;;3.43;2.00;;;-0.90;98.00;;;;;;5013491;28;20505;-64
2022/12/12 05:05:06;;;;;;;3.10;2.30;;;-0.80;98.00;;;;;;5012439;28;20489;-64
2022/12/12 05:07:38;;;;;;;2.23;2.03;;;-0.80;98.00;;;;;;5012246;28;20469;-64
2022/12/12 05:10:08;;;;;;;2.33;1.50;;;-0.80;98.00;;;;;;5012977;28;20877;-64
2022/12/12 05:12:41;;;;;;;2.07;1.93;;;-0.70;98.00;;;;;;5013219;28;20466;-64
2022/12/12 05:15:09;;;;;;;2.37;2.13;;;-0.70;98.00;;;;;;5012883;28;20889;-64
2022/12/12 05:17:42;;;;;;;2.33;2.00;;;-0.70;98.00;;;;;;5013136;28;20470;-64
2022/12/12 05:20:10;;;;;;;2.50;1.97;;;-0.70;98.00;;;;;;5012876;28;20465;-64
2022/12/12 05:22:38;;;;;;;5.93;3.40;;;-0.70;98.00;;;;;;5011695;28;21036;-64
2022/12/12 05:25:06;;;;;;;3.60;2.20;;;-0.70;98.00;;;;;;5012401;28;20881;-64
2022/12/12 05:27:33;;;;;;;1.50;1.40;;;-0.80;98.00;;;;;;5012284;28;20466;-64
2022/12/12 05:30:00;;;;;;;3.97;2.50;;;-0.70;98.00;;;;;;5012737;28;20462;-64
2022/12/12 05:32:27;;;;;;;4.17;3.03;;;-0.70;98.00;;;;;;5012747;28;20811;-64
2022/12/12 05:34:54;;;;;;;5.13;2.93;;;-0.70;98.00;;;;;;5012457;28;20459;-64
2022/12/12 05:37:21;;;;;;;5.03;3.10;;;-0.90;98.00;;;;;;5010915;28;20501;-64
2022/12/12 05:39:50;;;;;;;3.43;2.10;;;-0.90;98.00;;;;;;5012767;28;20826;-64
2022/12/12 05:42:17;;;;;;;5.07;2.77;;;-0.90;98.00;;;;;;5012846;28;20484;-64
2022/12/12 05:44:44;;;;;;;2.37;2.17;;;-0.90;98.00;;;;;;5011463;28;20546;-64
2022/12/12 05:47:11;;;;;;;6.17;3.00;;;-0.90;98.00;;;;;;5012796;28;20856;-64
2022/12/12 05:49:38;;;;;;;3.10;2.50;;;-0.90;98.00;;;;;;5012760;28;20452;-64
2022/12/12 05:52:05;;;;;;;3.83;2.40;;;-0.90;98.00;;;;;;5012820;28;20497;-64
2022/12/12 05:54:33;;;;;;;5.77;3.40;;;-0.80;98.00;;;;;;5011385;28;20453;-64
2022/12/12 05:57:02;;;;;;;3.43;2.53;;;-0.80;98.00;;;;;;5012805;28;20871;-64
2022/12/12 05:59:29;;;;;;;2.43;1.87;;;-0.80;98.00;;;;;;5012318;28;20461;-64
2022/12/12 06:01:57;;;;;;;6.93;3.60;;;-0.60;98.00;;;;;;5012573;28;20540;-64
2022/12/12 06:04:24;;;;;;;6.50;4.80;;;-0.50;98.00;;;;;;5011036;28;20470;-64
2022/12/12 06:06:51;;;;;;;3.57;2.97;;;-0.40;98.00;;;;;;5012311;28;20870;-64
2022/12/12 06:09:18;;;;;;;6.30;2.40;;;-0.30;98.00;;;;;;5010837;28;20525;-64
2022/12/12 06:11:45;;;;;;;3.30;2.47;;;-0.20;98.00;;;;;;5011048;28;20469;-64
2022/12/12 06:14:14;;;;;;;3.37;3.17;;;-0.20;98.00;;;;;;5012006;28;20868;-64
2022/12/12 06:16:41;;;;;;;3.30;3.10;;;-0.10;98.00;;;;;;5011868;28;20488;-64
2022/12/12 06:19:08;;;;;;;3.97;2.63;;;-0.10;98.00;;;;;;5011782;28;20462;-64
2022/12/12 06:21:35;;;;;;;3.83;2.50;;;-0.10;98.00;;;;;;5012168;28;20461;-64
2022/12/12 06:24:02;;;;;;;4.80;3.67;;;-0.10;98.00;;;;;;5012095;28;20468;-64
2022/12/12 06:26:29;;;;;;;3.50;2.67;;;-0.10;98.00;;;;;;5012103;28;20460;-64
2022/12/12 06:28:56;;;;;;;2.60;2.50;;;-0.20;98.00;;;;;;5012073;28;20458;-64
2022/12/12 06:31:26;;;;;;;4.07;2.70;;;-0.20;98.00;;;;;;5010913;28;20470;-64
2022/12/12 06:33:53;;;;;;;8.73;3.40;;;-0.10;98.00;;;;;;5012278;28;20465;-64
2022/12/12 06:36:23;;;;;;;3.70;3.03;;;-0.10;98.00;;;;;;5012107;28;20487;-64
2022/12/12 06:38:51;;;;;;;7.83;3.40;;;-0.20;98.00;;;;;;5012321;28;20508;-64
2022/12/12 06:41:18;;;;;;;3.50;3.27;;;-0.20;98.00;;;;;;5012124;28;20458;-64
2022/12/12 06:43:47;;;;;;;6.80;3.53;;;-0.20;98.00;;;;;;5010969;28;21001;-64
2022/12/12 06:46:16;;;;;;;3.67;2.70;;;-0.30;98.00;;;;;;5012171;28;20460;-64
2022/12/12 06:48:45;;;;;;;4.83;2.83;;;-0.40;98.00;;;;;;5012162;28;20948;-64
2022/12/12 06:51:15;;;;;;;2.50;2.17;;;-0.40;98.00;;;;;;5012277;28;20479;-64
2022/12/12 06:53:43;;;;;;;6.87;3.20;;;-0.40;98.00;;;;;;5010742;28;20510;-64
2022/12/12 06:56:13;;;;;;;7.10;4.07;;;-0.40;98.00;;;;;;5011683;28;20489;-64
2022/12/12 06:58:40;;;;;;;8.00;4.38;;;-0.40;98.00;;;;;;5011714;28;20477;-64
2022/12/12 07:01:08;;;;;;;5.83;3.87;;;-0.40;98.00;;;;;;5011853;28;20709;-64
2022/12/12 07:03:35;;;;;;;4.75;2.88;;;-0.30;98.00;;;;;;5011651;28;20457;-64
2022/12/12 07:06:05;;;;;;;4.57;3.33;;;-0.20;98.00;;;;;;5011638;28;20662;-65
2022/12/12 07:08:33;;;;;;;5.27;2.77;;;-0.10;98.00;;;;;;5011472;28;20838;-64
2022/12/12 07:11:04;;;;;;;4.80;3.20;;;-0.10;98.00;;;;;;5011707;28;20465;-64
2022/12/12 07:13:33;;;;;;;6.03;4.17;;;-0.20;98.00;;;;;;5011526;28;20509;-64
2022/12/12 07:16:00;;;;;;;2.63;2.40;;;0.00;98.00;;;;;;5011583;28;20489;-64
2022/12/12 07:18:28;;;;;;;4.13;3.00;;;-0.10;98.00;;;;;;5010393;28;21086;-64
2022/12/12 07:20:55;;;;;;;5.57;3.10;;;-0.10;98.00;;;;;;5006690;28;20833;-64
2022/12/12 07:23:23;;;;;;;4.13;3.17;;;-0.10;98.00;;;;;;5010795;28;20465;-64
2022/12/12 07:25:50;;;;;;;6.40;4.40;;;0.00;98.00;;;;;;5010668;28;20466;-64
2022/12/12 07:28:17;;;;;;;7.20;4.20;;;-0.10;98.00;;;;;;5010812;28;20473;-64
2022/12/12 07:30:48;;;;;;;5.90;3.93;;;-0.10;98.00;;;;;;5013128;28;20964;-64
2022/12/12 07:33:16;;;;;;;3.60;2.83;;;-0.10;98.00;;;;;;5014257;28;20467;-64
2022/12/12 07:35:44;;;;;;;2.90;2.50;;;-0.10;98.00;;;;;;5014462;28;20881;-64
2022/12/12 07:38:11;;;;;;;3.93;2.50;;;0.00;98.00;;;;;;5014207;28;20461;-64
2022/12/12 07:40:42;;;;;;;3.20;2.40;;;-0.10;98.00;;;;;;5014162;28;20461;-64
2022/12/12 07:43:09;;;;;;;5.83;2.90;;;-0.20;98.00;;;;;;5029299;28;20497;-64
2022/12/12 07:45:37;;;;;;;3.63;3.20;;;-0.30;98.00;;;;;;5029473;28;20473;-64
2022/12/12 07:48:04;;;;;;;2.70;2.40;;;-0.30;98.00;;;;;;5032689;28;20453;-64
2022/12/12 07:50:31;;;;;;;2.03;1.90;;;-0.30;98.00;;;;;;5033715;28;20464;-65
2022/12/12 07:52:58;;;;;;;3.73;1.90;;;-0.20;98.00;;;;;;5018691;28;20513;-64
2022/12/12 07:55:27;;;;;;;3.80;3.20;;;-0.20;98.00;;;;;;5013731;28;20505;-64
2022/12/12 07:57:56;;;;;;;6.00;3.13;;;-0.10;98.00;;;;;;5028888;28;20490;-64
2022/12/12 08:00:23;;;;;;;4.97;3.07;;;-0.10;98.00;;;;;;5013722;28;20465;-64
2022/12/12 08:02:50;;;;;;;8.87;4.17;;;-0.20;98.00;;;;;;5013986;28;20461;-64
2022/12/12 08:05:18;;;;;;;3.67;3.17;;;-0.40;98.00;;;;;;5013600;28;20470;-64
2022/12/12 08:07:45;;;;;;;9.60;2.80;;;-0.50;98.00;;;;;;5013354;28;20476;-64
2022/12/12 08:10:13;;;;;;;2.60;1.90;;;-0.50;98.00;;;;;;5013371;28;20971;-64
2022/12/12 08:12:41;;;;;;;4.70;3.40;;;-0.50;98.00;;;;;;5013484;28;20461;-64
2022/12/12 08:15:17;;;;;;;5.07;3.83;;;-0.50;98.00;;;;;;5028406;28;21023;-64
2022/12/12 08:17:44;;;;;;;2.83;2.43;;;-0.40;98.00;;;;;;5028215;28;20579;-64
2022/12/12 08:20:11;;;;;;;5.57;3.03;;;-0.30;98.00;;;;;;5013473;28;20483;-64
2022/12/12 08:22:38;;;;;;;2.37;1.93;;;-0.40;98.00;;;;;;5013352;28;20468;-64
2022/12/12 08:25:09;;;;;;;3.13;2.17;;;-0.30;98.00;;;;;;5013372;28;20802;-64
2022/12/12 08:27:36;;;;;;;5.40;3.23;;;-0.20;98.00;;;;;;5028277;28;20459;-64
2022/12/12 08:30:03;;;;;;;3.73;3.20;;;-0.10;98.00;;;;;;5028364;28;20860;-64
2022/12/12 08:32:32;;;;;;;6.80;3.73;;;-0.10;98.00;;;;;;5011558;28;20469;-65
2022/12/12 08:34:59;;;;;;;3.27;2.23;;;-0.20;98.00;;;;;;5009974;28;21009;-65
2022/12/12 08:37:26;;;;;;;2.80;2.13;;;-0.10;98.00;;;;;;5010843;28;20499;-66
2022/12/12 08:39:53;;;;;;;3.47;2.40;;;-0.30;98.00;;;;;;5010799;28;20518;-66
2022/12/12 08:42:20;;;;;;;4.70;3.13;;;-0.40;98.00;;;;;;5010051;28;21063;-66
2022/12/12 08:44:49;;;;;;;2.83;2.70;;;-0.40;98.00;;;;;;5012278;28;20827;-61
2022/12/12 08:47:16;;;;;;;3.57;2.37;;;-0.20;98.00;;;;;;5012759;28;20461;-61
2022/12/12 08:49:45;;;;;;;5.43;2.88;;;-0.10;98.00;;;;;;5012562;28;20462;-61
2022/12/12 08:52:12;;;;;;;6.20;3.63;;;-0.10;98.00;;;;;;5012772;28;20211;-61
2022/12/12 08:54:39;;;;;;;1.83;1.80;;;0.10;98.00;;;;;;5031325;28;20464;-61
2022/12/12 08:57:07;;;;;;;3.40;3.10;;;0.20;98.00;;;;;;5031995;28;20492;-61
2022/12/12 08:59:34;;;;;;;6.67;2.83;;;0.30;98.00;;;;;;5032073;28;20461;-62
2022/12/12 09:02:01;;;;;;;7.60;2.97;;;0.30;98.00;;;;;;5032446;28;20460;-62
2022/12/12 09:04:28;;;;;;;5.27;3.00;;;0.30;98.00;;;;;;5013585;28;20453;-61
2022/12/12 09:06:57;;;;;;;3.63;2.63;;;0.10;98.00;;;;;;5032262;28;20886;-61
2022/12/12 09:09:24;;;;;;;6.50;3.10;;;0.20;98.00;;;;;;5032150;28;20530;-61
2022/12/12 09:11:51;;;;;;;1.90;1.80;;;0.30;98.00;;;;;;5032276;28;20544;-61
2022/12/12 09:14:18;;;;;;;4.13;2.50;;;0.30;98.00;;;;;;5014654;28;20527;-61
2022/12/12 09:16:45;;;;;;;2.50;2.27;;;0.40;98.00;;;;;;5032045;28;20560;-61
2022/12/12 09:19:14;;;;;;;4.93;2.77;;;0.40;98.00;;;;;;5032030;28;20469;-61
2022/12/12 09:21:42;;;;;;;4.30;2.80;;;0.50;98.00;;;;;;5031984;28;20514;-61
2022/12/12 09:24:12;;;;;;;5.13;3.93;;;0.40;98.00;;;;;;5032157;28;20453;-61
2022/12/12 09:26:39;;;;;;;4.80;2.43;;;0.40;98.00;;;;;;5032074;28;20464;-61
2022/12/12 09:29:06;;;;;;;3.97;2.50;;;0.30;98.00;;;;;;5014385;28;20510;-61
2022/12/12 09:31:33;;;;;;;5.00;3.47;;;0.30;98.00;;;;;;5032283;28;20860;-61
2022/12/12 09:34:00;;;;;;;4.33;2.63;;;0.40;98.00;;;;;;5014510;28;20476;-61
2022/12/12 09:36:27;;;;;;;5.23;2.77;;;0.40;98.00;;;;;;5031925;28;20544;-62
2022/12/12 09:38:55;;;;;;;4.73;2.50;;;0.20;98.00;;;;;;5031870;28;20460;-61
2022/12/12 09:41:29;;;;;;;3.00;2.30;;;0.10;98.00;;;;;;5014290;28;20821;-61
2022/12/12 09:43:59;;;;;;;5.17;3.53;;;0.20;98.00;;;;;;5031597;28;20460;-61
2022/12/12 09:46:37;;;;;;;3.27;3.10;;;0.40;98.00;;;;;;5031757;28;20469;-61
2022/12/12 09:49:13;;;;;;;3.17;2.63;;;0.30;98.00;;;;;;5031596;28;21046;-61
2022/12/12 09:51:42;;;;;;;4.50;2.30;;;0.30;98.00;;;;;;5031550;28;20823;-62
2022/12/12 09:54:16;;;;;;;3.77;3.17;;;0.40;98.00;;;;;;5031164;28;20465;-61
2022/12/12 09:56:54;;;;;;;5.20;2.60;;;0.40;98.00;;;;;;5031434;28;20483;-61
2022/12/12 09:59:33;;;;;;;7.07;4.00;;;0.50;98.00;;;;;;5031316;28;20931;-61
2022/12/12 10:02:11;;;;;;;3.30;2.30;;;0.60;98.00;;;;;;5031465;28;20461;-61
2022/12/12 10:04:43;;;;;;;2.47;2.33;;;0.50;98.00;;;;;;5031511;28;20469;-61
2022/12/12 10:07:16;;;;;;;1.80;1.40;;;0.60;98.00;;;;;;5031305;28;20484;-61
2022/12/12 10:09:54;;;;;;;4.30;3.10;;;0.60;98.00;;;;;;5031212;28;20515;-61
2022/12/12 10:12:23;;;;;;;4.13;2.40;;;0.60;98.00;;;;;;5031253;28;20465;-62
2022/12/12 10:14:54;;;;;;;2.03;1.93;;;0.60;98.00;;;;;;5031242;28;20455;-61
2022/12/12 10:17:29;;;;;;;4.80;3.10;;;0.70;98.00;;;;;;5031160;28;20480;-61
2022/12/12 10:20:03;;;;;;;8.53;3.63;;;0.80;98.00;;;;;;5031123;28;20456;-61
2022/12/12 10:22:37;;;;;;;6.37;3.03;;;0.70;98.00;;;;;;5031105;28;21017;-62
2022/12/12 10:25:15;;;;;;;5.33;2.83;;;0.60;98.00;;;;;;5031148;28;20462;-61
2022/12/12 10:27:44;;;;;;;3.97;3.20;;;0.60;98.00;;;;;;5031542;28;20832;-61
2022/12/12 10:30:16;;;;;;;4.00;3.27;;;0.40;98.00;;;;;;5013855;28;20951;-61
2022/12/12 10:33:00;;;;;;;4.93;3.67;;;0.20;98.00;;;;;;5031072;28;20464;-61
2022/12/12 10:35:38;;;;;;;3.50;2.80;;;0.20;98.00;;;;;;5030997;28;20488;-61
2022/12/12 10:38:23;;;;;;;4.50;2.53;;;0.40;98.00;;;;;;5031051;28;20951;-61
2022/12/12 10:40:59;;;;;;;6.47;3.37;;;0.30;98.00;;;;;;5014743;28;20479;-61
2022/12/12 10:43:33;;;;;;;2.77;2.27;;;0.40;98.00;;;;;;5030981;28;20829;-61
2022/12/12 10:46:16;;;;;;;4.17;2.80;;;0.50;98.00;;;;;;5030883;28;20469;-62
2022/12/12 10:48:44;;;;;;;3.73;2.10;;;0.60;98.00;;;;;;5014027;28;20457;-61
2022/12/12 10:51:16;;;;;;;3.07;2.90;;;0.60;98.00;;;;;;5030688;28;20457;-61
2022/12/12 10:53:45;;;;;;;3.33;2.67;;;0.50;98.00;;;;;;5030934;28;20461;-61
2022/12/12 10:56:19;;;;;;;3.23;2.40;;;0.60;98.00;;;;;;5030945;28;20532;-62
2022/12/12 10:58:53;;;;;;;2.40;2.07;;;0.60;98.00;;;;;;5030876;28;20570;-61
2022/12/12 11:01:24;;;;;;;1.73;1.63;;;0.90;98.00;;;;;;5030773;28;20814;-61
2022/12/12 11:03:54;;;;;;;4.90;3.50;;;1.00;98.00;;;;;;5015050;28;20457;-61
2022/12/12 11:06:29;;;;;;;2.87;2.67;;;1.20;98.00;;;;;;5016789;28;20457;-61
2022/12/12 11:08:58;;;;;;;5.90;2.80;;;1.30;98.00;;;;;;5034904;28;20461;-61
2022/12/12 11:11:27;;;;;;;4.60;2.47;;;1.40;98.00;;;;;;5034650;28;20461;-61
2022/12/12 11:13:58;;;;;;;3.53;3.00;;;1.60;98.00;;;;;;5034397;28;20457;-61
2022/12/12 11:16:27;;;;;;;8.30;3.10;;;1.50;98.00;;;;;;5034533;28;20515;-61
2022/12/12 11:19:05;;;;;;;4.17;2.50;;;1.60;98.00;;;;;;5034404;28;20485;-62
2022/12/12 11:21:34;;;;;;;5.13;2.50;;;1.80;98.00;;;;;;5034735;28;20512;-61
2022/12/12 11:24:08;;;;;;;2.97;2.57;;;1.90;98.00;;;;;;5034523;28;20504;-61
2022/12/12 11:26:42;;;;;;;2.60;2.30;;;1.80;98.00;;;;;;5034329;28;20465;-61
2022/12/12 11:29:27;;;;;;;5.93;3.43;;;1.70;98.00;;;;;;5034327;28;20462;-61
2022/12/12 11:31:55;;;;;;;7.27;3.40;;;1.80;98.00;;;;;;5034221;28;20556;-62
2022/12/12 11:34:24;;;;;;;5.83;2.47;;;1.80;98.00;;;;;;5034086;28;20503;-62
2022/12/12 11:36:51;;;;;;;6.23;3.63;;;1.80;98.00;;;;;;5034223;28;20504;-62
2022/12/12 11:39:23;;;;;;;6.50;3.77;;;1.60;98.00;;;;;;5034195;28;20469;-61
2022/12/12 11:42:05;;;;;;;7.13;2.60;;;1.50;98.00;;;;;;5034006;28;20454;-61
2022/12/12 11:44:37;;;;;;;4.03;2.87;;;1.60;98.00;;;;;;5033715;28;20466;-61
2022/12/12 11:47:26;;;;;;;3.60;2.80;;;1.70;98.00;;;;;;5034157;28;20480;-62
2022/12/12 11:49:55;;;;;;;3.00;2.83;;;1.60;98.00;;;;;;5029719;28;20839;-62
2022/12/12 11:52:24;;;;;;;4.83;3.23;;;1.60;98.00;;;;;;5033934;28;20971;-61
2022/12/12 11:54:51;;;;;;;9.57;3.77;;;1.90;98.00;;;;;;5033720;28;20600;-62
2022/12/12 11:57:31;;;;;;;13.43;3.47;;;2.00;98.00;;;;;;5033494;28;20573;-62
2022/12/12 12:00:10;;;;;;;4.87;3.20;;;2.10;98.00;;;;;;5033449;28;20515;-61
2022/12/12 12:03:07;;;;;;;12.23;3.80;;;2.10;98.00;;;;;;5033585;28;20461;-61
2022/12/12 12:05:46;;;;;;;3.27;2.00;;;2.00;98.00;;;;;;5033417;28;20459;-61
2022/12/12 12:08:25;;;;;;;4.67;2.87;;;2.10;98.00;;;;;;5033354;28;20486;-62
2022/12/12 12:11:07;;;;;;;3.77;2.53;;;2.20;98.00;;;;;;5015998;28;20454;-62
2022/12/12 12:13:50;;;;;;;5.17;3.43;;;2.40;98.00;;;;;;5033388;28;20454;-62
2022/12/12 12:16:24;;;;;;;3.17;2.97;;;2.60;98.00;;;;;;5032742;28;20461;-61
2022/12/12 12:19:04;;;;;;;8.07;3.20;;;2.70;98.00;;;;;;5033036;28;20697;-62
2022/12/12 12:21:42;;;;;;;8.60;3.80;;;2.90;98.00;;;;;;5033267;28;20465;-61
2022/12/12 12:24:32;;;;;;;3.27;2.57;;;3.20;98.00;;;;;;5024071;28;20463;-61
2022/12/12 12:27:06;;;;;;;3.17;2.53;;;3.70;98.00;;;;;;5013396;28;20554;-62
2022/12/12 12:30:06;;;;;;;4.20;3.07;;;4.10;98.00;;;;;;5013202;28;20475;-61
2022/12/12 12:32:46;;;;;;;16.03;3.73;;;4.30;98.00;;;;;;5013088;28;20464;-62
2022/12/12 12:35:27;;;;;;;5.17;3.10;;;4.30;98.00;;;;;;5012844;28;20467;-61
2022/12/12 12:38:07;;;;;;;7.30;3.53;;;4.70;98.00;;;;;;5013066;28;20574;-61
2022/12/12 12:40:50;;;;;;;5.00;3.30;;;4.90;98.00;;;;;;5013046;28;20467;-61
2022/12/12 12:43:41;;;;;;;6.90;3.57;;;5.00;98.00;;;;;;5012912;28;20849;-62
2022/12/12 12:46:15;;;;;;;4.27;2.70;;;5.50;98.00;;;;;;5012988;28;20461;-62
2022/12/12 12:48:47;;;;;;;6.13;3.40;;;5.70;98.00;;;;;;5012886;28;20478;-61
2022/12/12 12:51:20;;;;;;;7.20;4.20;;;5.90;98.00;;;;;;5012670;28;20822;-62
2022/12/12 12:53:52;;;;;;;9.33;3.90;;;6.10;98.00;;;;;;5015333;28;20459;-62
2022/12/12 12:56:23;;;;;;;9.63;4.20;;;6.20;98.00;;;;;;5012734;28;20949;-61
2022/12/12 12:58:53;;;;;;;6.20;3.40;;;6.20;98.00;;;;;;5012794;28;20925;-62
2022/12/12 13:01:26;;;;;;;6.63;3.83;;;6.10;98.00;;;;;;5012611;28;20527;-61
2022/12/12 13:04:02;;;;;;;6.93;3.60;;;5.60;98.00;;;;;;5012897;28;20527;-62
2022/12/12 13:06:40;;;;;;;6.53;3.73;;;5.10;98.00;;;;;;5012498;28;20900;-62
2022/12/12 13:09:21;;;;;;;5.43;3.17;;;4.60;98.00;;;;;;5012781;28;20460;-62
2022/12/12 13:11:53;;;;;;;6.00;3.83;;;4.30;98.00;;;;;;5012567;28;20464;-62
2022/12/12 13:14:30;;;;;;;4.67;3.20;;;4.00;98.00;;;;;;5012417;28;20474;-62
2022/12/12 13:17:05;;;;;;;2.77;2.53;;;3.90;98.00;;;;;;5026937;28;20451;-62
2022/12/12 13:19:37;;;;;;;9.23;3.77;;;3.90;98.00;;;;;;5012104;28;20480;-62
2022/12/12 13:22:09;;;;;;;9.53;4.10;;;3.80;98.00;;;;;;5012560;28;20514;-62
2022/12/12 13:24:44;;;;;;;4.13;2.60;;;3.50;98.00;;;;;;5012140;28;20467;-62
2022/12/12 13:27:17;;;;;;;8.37;3.37;;;3.10;98.00;;;;;;5011355;28;20464;-62
2022/12/12 13:29:51;;;;;;;5.93;2.90;;;3.00;98.00;;;;;;5011910;28;20542;-62